weerspreuk van de week :November heeft maar dertig dagen, maar dubbel wind en regenvlagen.
BCC, Altijd een oplossing in huis

Onweer radar Meer informatie blitzortung!


Regen radar Meer informatie rain snow radar


Bekijk deze sites ook eens:

Awekas

AMAZON.NL

Canon

Het weer actueel

Diam Telecom

Dierspecialist (TIP)

Paradigit

Expert

Zooplus

De Kempen, mijn omgeving

Douglas

BOL.com

Weerstation Noordbergum

Inktweb

yourhosting

petsonline

Youfone

bestbuyhoesjes

huisdierexpress

e-matching.

Seniorengeluk

Weerverwachting Samos

Samos actueel

Weerwoord (forum)

wow-knmi

Wolven in Nederland



METAR rapporten vliegvelden

   
EBBR - Brussels International Airport, Belgium
Afstand tot: W 14 km
Gewijzigd: 27-11-2022 06:50
Wat regen mogelijk, Licht bewolkt  
Wat regen mogelijk, Licht bewolkt  
   Wind: Zuiden 16.7 km/h
Wind: Zuiden 16.7 km/h
Temperatuur: 7°C
Voelt als: 4°C
Dauwpunt: 4°C
Vochtigheid: 81%
Barometer: 1021 hPa
Bewolking: Licht bewolkt
Zicht: meer dan 10 km
Bewolking: Licht bewolkt 3500 ft
EBBR 270550Z 17009KT 9999 -RA FEW035 07/04 Q1021 NOSIG
EBBE - Beauvechain (Bevekom), Belgium
Afstand tot: ZZO 17 km
Gewijzigd: 27-11-2022 06:25
Lichte (mot)regen, Grotendeels bewolkt  
Lichte (mot)regen, Grotendeels bewolkt  
   Wind: Zuiden 13 km/h
Wind: Zuiden 13 km/h
Temperatuur: 7°C
Voelt als: 4°C
Dauwpunt: 3°C
Vochtigheid: 76%
Barometer: 1022 hPa
Bewolking: Grotendeels bewolkt
Zicht: meer dan 10 km
Bewolking: Grotendeels bewolkt 6500 ft,
Grotendeels bewolkt 8000 ft
EBBE 270525Z AUTO 18007KT 9999 -DZ BKN065/// BKN080/// 07/03 Q1022 BLU
EBDT - Schaffen, Belgium
Afstand tot: ONO 29 km
Gewijzigd: 27-11-2022 06:55
Wat regen mogelijk, Bewolking  
Wat regen mogelijk, Bewolking  
   Wind: Zuiden 11.1 km/h
Wind: Zuiden 11.1 km/h
Temperatuur: 7°C
Voelt als: 5°C
Dauwpunt: 4°C
Vochtigheid: 81%
Barometer: 1022 hPa
Bewolking: Bewolking
Zicht: meer dan 10 km
Bewolking: Bewolking 7600 ft
EBDT 270555Z AUTO 17006KT 9999 -RA OVC076/// 07/04 Q1022 BLU
EBAW - Antwerp/Deurne, Belgium
Afstand tot: NNW 38 km
Gewijzigd: 27-11-2022 06:50
Wat regen mogelijk, Gedeeltelijk bewolkt  
Wat regen mogelijk, Gedeeltelijk bewolkt  
   Wind: ZO 14.8 km/h
Wind: ZO 14.8 km/h
Temperatuur: 6°C
Voelt als: 3°C
Dauwpunt: 4°C
Vochtigheid: 87%
Barometer: 1021 hPa
Bewolking: Gedeeltelijk bewolkt
Zicht: meer dan 10 km
Bewolking: Gedeeltelijk bewolkt
EBAW 270550Z 14008KT 9999 -RA NSC 06/04 Q1021 NOSIG
EBCI - Charleroi/Gosselies, Belgium
Afstand tot: ZZW 51 km
Gewijzigd: 27-11-2022 06:50
Wat regen mogelijk, Grotendeels bewolkt  
Wat regen mogelijk, Grotendeels bewolkt  
   Wind: Zuiden 22.2 km/h
Wind: Zuiden 22.2 km/h
Temperatuur: 6°C
Voelt als: 2°C
Dauwpunt: 3°C
Vochtigheid: 81%
Barometer: 1021 hPa
Bewolking: Grotendeels bewolkt
Zicht: meer dan 10 km
Bewolking: Gedeeltelijk bewolkt 900 ft,
Grotendeels bewolkt 3500 ft
EBCI 270550Z 17012KT 9999 -RA SCT009 BKN035 06/03 Q1021 TEMPO 4000 RADZ BKN010
EBLG - Bierset/Liege, Belgium
Afstand tot: OZO 60 km
Gewijzigd: 27-11-2022 06:50
Helder  
Helder  
   Wind: Zuiden 24.1 km/h
Wind: Zuiden 24.1 km/h
Temperatuur: 7°C
Voelt als: 3°C
Dauwpunt: 2°C
Vochtigheid: 71%
Barometer: 1022 hPa
Zicht: meer dan 10 km
Bewolking: Helder
EBLG 270550Z 19013KT CAVOK 07/02 Q1022 NOSIG

Script ontwikkeld door  Saratoga-weather.org Aangepast voor de template door  Weerstation Leuven

U vindt ons ook hier:

Het Weer Aktueel

UK Metoffice

European Weather Network

Weather Underground

AWEKAS

Select oktober 2022Select oktober 2022 />